Time;durP1;ratioP1;P1;durP2;ratioP2;P2;SDS_P1;SDS_P2;PMS_P1;PMS_P2;Temp;Humidity;BMP_temperature;BMP_pressure;BME280_temperature;BME280_humidity;BME280_pressure;Samples;Min_cycle;Max_cycle;Signal;HPM_P1;HPM_P2
2021/07/09 00:01:08;;;;;;;7.83;7.03;;;;;;;18.34;100.00;100958.69;5045581;28;20258;-73
2021/07/09 00:03:36;;;;;;;7.90;7.10;;;;;;;18.32;100.00;100961.41;5049768;28;20206;-74
2021/07/09 00:06:02;;;;;;;7.80;7.00;;;;;;;18.33;100.00;100960.47;5044197;28;20305;-73
2021/07/09 00:08:29;;;;;;;7.97;7.17;;;;;;;18.35;100.00;100965.69;5046834;28;20587;-73
2021/07/09 00:10:55;;;;;;;7.57;6.67;;;;;;;18.35;100.00;100963.88;5043785;28;20631;-73
2021/07/09 00:13:21;;;;;;;7.70;7.00;;;;;;;18.34;100.00;100964.81;5048348;28;20195;-73
2021/07/09 00:15:48;;;;;;;8.37;7.50;;;;;;;18.37;100.00;100970.88;5046854;28;20320;-73
2021/07/09 00:18:15;;;;;;;8.27;7.47;;;;;;;18.35;100.00;100952.50;5047657;28;20203;-73
2021/07/09 00:20:42;;;;;;;7.57;6.77;;;;;;;18.35;100.00;100955.13;5047090;28;20314;-73
2021/07/09 00:23:09;;;;;;;7.90;7.10;;;;;;;18.35;100.00;100949.84;5057411;28;20207;-73
2021/07/09 00:25:36;;;;;;;8.93;7.00;;;;;;;18.33;100.00;100947.28;5044621;28;20881;-73
2021/07/09 00:28:03;;;;;;;8.47;7.63;;;;;;;18.34;100.00;100943.69;5046749;28;20204;-72
2021/07/09 00:30:30;;;;;;;8.13;7.33;;;;;;;18.32;100.00;100932.38;5047002;28;20286;-74
2021/07/09 00:32:56;;;;;;;8.73;7.87;;;;;;;18.32;100.00;100926.25;5037283;28;20222;-73
2021/07/09 00:35:23;;;;;;;9.03;7.60;;;;;;;18.32;100.00;100916.53;5042021;28;20228;-73
2021/07/09 00:37:51;;;;;;;9.40;7.63;;;;;;;18.33;100.00;100917.41;5046777;28;20206;-74
2021/07/09 00:40:18;;;;;;;8.33;7.43;;;;;;;18.32;100.00;100924.44;5039007;28;20692;-74
2021/07/09 00:42:44;;;;;;;8.80;7.73;;;;;;;18.32;100.00;100924.44;5046756;28;20222;-73
2021/07/09 00:45:12;;;;;;;9.80;7.23;;;;;;;18.32;100.00;100923.59;5046094;28;20223;-73
2021/07/09 00:47:38;;;;;;;9.07;7.60;;;;;;;18.30;100.00;100923.69;5044503;28;20200;-73
2021/07/09 00:50:06;;;;;;;7.87;7.00;;;;;;;18.31;100.00;100919.25;5046678;28;20253;-73
2021/07/09 00:52:32;;;;;;;10.20;7.13;;;;;;;18.31;100.00;100920.13;5042213;28;20199;-73
2021/07/09 00:55:00;;;;;;;7.60;6.87;;;;;;;18.29;100.00;100924.63;5045457;28;20707;-73
2021/07/09 00:57:28;;;;;;;8.50;7.60;;;;;;;18.29;100.00;100927.28;5046532;28;20199;-74
2021/07/09 00:59:54;;;;;;;7.70;6.90;;;;;;;18.29;100.00;100913.22;5044086;28;20310;-73
2021/07/09 01:02:23;;;;;;;8.60;7.53;;;;;;;18.28;100.00;100909.72;5046937;28;20517;-75
2021/07/09 01:04:51;;;;;;;9.33;7.40;;;;;;;18.29;100.00;100911.44;5035369;28;20231;-73
2021/07/09 01:07:18;;;;;;;8.77;7.23;;;;;;;18.29;100.00;100908.81;5043539;28;20199;-73
2021/07/09 01:09:44;;;;;;;7.70;6.90;;;;;;;18.29;100.00;100910.56;5039034;28;20218;-73
2021/07/09 01:12:13;;;;;;;8.60;7.50;;;;;;;18.27;100.00;100902.72;5043095;28;20235;-73
2021/07/09 01:14:40;;;;;;;8.47;7.13;;;;;;;18.27;100.00;100901.88;5048288;28;20583;-73
2021/07/09 01:17:06;;;;;;;8.10;6.90;;;;;;;18.27;100.00;100904.53;5042784;28;20208;-73
2021/07/09 01:19:33;;;;;;;9.20;7.47;;;;;;;18.27;100.00;100904.53;5046457;28;20213;-73
2021/07/09 01:21:59;;;;;;;8.70;7.37;;;;;;;18.26;100.00;100903.69;5045069;28;20836;-73
2021/07/09 01:24:27;;;;;;;9.27;7.47;;;;;;;18.26;100.00;100905.47;5050475;28;20231;-73
2021/07/09 01:26:54;;;;;;;7.87;7.17;;;;;;;18.27;100.00;100904.53;5045311;28;20207;-75
2021/07/09 01:29:20;;;;;;;8.17;7.37;;;;;;;18.25;100.00;100899.31;5047034;28;20210;-74
2021/07/09 01:31:46;;;;;;;8.00;7.20;;;;;;;18.24;100.00;100892.38;5047769;28;20207;-73
2021/07/09 01:34:13;;;;;;;7.80;7.10;;;;;;;18.23;100.00;100884.53;5045489;28;20227;-73
2021/07/09 01:36:40;;;;;;;7.60;6.87;;;;;;;18.21;100.00;100881.13;5046965;28;20714;-73
2021/07/09 01:39:07;;;;;;;7.93;7.13;;;;;;;18.18;100.00;100871.56;5043048;28;20668;-73
2021/07/09 01:41:34;;;;;;;7.47;6.77;;;;;;;18.17;100.00;100860.16;5044447;28;20225;-74
2021/07/09 01:44:02;;;;;;;7.00;6.33;;;;;;;18.17;100.00;100872.53;5045012;28;20744;-73
2021/07/09 01:46:30;;;;;;;6.77;6.17;;;;;;;18.14;100.00;100865.59;5044589;28;20565;-73
2021/07/09 01:48:57;;;;;;;6.90;6.20;;;;;;;18.14;100.00;100868.25;5043220;28;20307;-73
2021/07/09 01:51:23;;;;;;;7.13;6.23;;;;;;;18.15;100.00;100877.88;5045179;28;20206;-73
2021/07/09 01:53:50;;;;;;;6.53;5.93;;;;;;;18.14;100.00;100875.31;5043539;28;20239;-73
2021/07/09 01:56:16;;;;;;;6.77;5.97;;;;;;;18.15;100.00;100893.72;5042203;28;20207;-74
2021/07/09 01:58:44;;;;;;;6.73;6.03;;;;;;;18.17;100.00;100893.63;5049692;28;20234;-73
2021/07/09 02:01:11;;;;;;;5.77;5.27;;;;;;;18.17;100.00;100893.63;5042629;28;20220;-73
2021/07/09 02:03:38;;;;;;;7.37;5.53;;;;;;;18.16;100.00;100887.47;5044823;28;20243;-73
2021/07/09 02:06:04;;;;;;;6.17;5.57;;;;;;;18.18;100.00;100890.03;5043566;28;20212;-73
2021/07/09 02:08:31;;;;;;;6.37;5.77;;;;;;;18.17;100.00;100889.19;5041929;28;20203;-74
2021/07/09 02:10:57;;;;;;;6.97;6.20;;;;;;;18.18;100.00;100884.75;5041001;28;20192;-73
2021/07/09 02:13:24;;;;;;;6.90;6.20;;;;;;;18.17;100.00;100885.72;5042425;28;20214;-73
2021/07/09 02:15:51;;;;;;;6.43;5.80;;;;;;;18.17;100.00;100877.78;5039014;28;20567;-73
2021/07/09 02:18:18;;;;;;;6.50;5.90;;;;;;;18.18;100.00;100868.94;5043787;28;20296;-73
2021/07/09 02:20:45;;;;;;;6.27;5.67;;;;;;;18.19;100.00;100864.50;5043126;28;20230;-73
2021/07/09 02:23:15;;;;;;;7.13;6.13;;;;;;;18.17;100.00;100869.88;5044740;28;20269;-74
2021/07/09 02:25:42;;;;;;;6.80;6.10;;;;;;;18.17;100.00;100876.00;5046154;28;20218;-74
2021/07/09 02:28:08;;;;;;;6.43;5.83;;;;;;;18.17;100.00;100877.78;5043843;28;20214;-74
2021/07/09 02:30:35;;;;;;;6.83;6.13;;;;;;;18.16;100.00;100889.28;5040444;28;20515;-74
2021/07/09 02:33:04;;;;;;;6.40;5.80;;;;;;;18.14;100.00;100904.34;5044233;28;20207;-73
2021/07/09 02:35:33;;;;;;;6.80;6.10;;;;;;;18.14;100.00;100915.75;5045995;28;20229;-73
2021/07/09 02:38:00;;;;;;;6.60;6.00;;;;;;;18.15;100.00;100933.28;5042800;28;20608;-74
2021/07/09 02:40:28;;;;;;;6.70;6.00;;;;;;;18.15;100.00;100948.25;5045853;28;20289;-74
2021/07/09 02:42:58;;;;;;;6.27;5.37;;;;;;;18.14;100.00;100955.31;5042592;28;20314;-73
2021/07/09 02:45:25;;;;;;;7.70;5.90;;;;;;;18.14;100.00;100957.13;5043572;28;20227;-73
2021/07/09 02:47:52;;;;;;;6.60;5.87;;;;;;;18.12;100.00;100945.78;5042946;28;20207;-74
2021/07/09 02:50:22;;;;;;;7.17;5.90;;;;;;;18.11;100.00;100944.91;5043662;28;20203;-73
2021/07/09 02:52:48;;;;;;;8.73;6.23;;;;;;;18.11;100.00;100936.16;5044098;28;20633;-73
2021/07/09 02:55:17;;;;;;;7.13;6.43;;;;;;;18.11;100.00;100928.25;5044547;28;20777;-73
2021/07/09 02:57:44;;;;;;;6.87;6.17;;;;;;;18.09;100.00;100920.41;5043830;28;20215;-73
2021/07/09 03:00:13;;;;;;;7.03;6.40;;;;;;;18.10;100.00;100918.59;5044464;28;20207;-73
2021/07/09 03:02:40;;;;;;;7.43;6.70;;;;;;;18.10;100.00;100916.84;5036734;28;20285;-73
2021/07/09 03:05:08;;;;;;;8.83;6.87;;;;;;;18.09;100.00;100912.50;5039855;28;20415;-74
2021/07/09 03:07:36;;;;;;;8.20;7.40;;;;;;;18.06;100.00;100902.09;5039585;28;20279;-73
2021/07/09 03:10:03;;;;;;;10.10;9.10;;;;;;;18.05;100.00;100894.28;5043368;28;20724;-74
2021/07/09 03:12:29;;;;;;;10.90;9.40;;;;;;;18.03;100.00;100883.81;5043606;28;20195;-72
2021/07/09 03:14:55;;;;;;;12.93;10.17;;;;;;;18.00;100.00;100873.41;5045102;28;20226;-73
2021/07/09 03:17:22;;;;;;;15.50;11.03;;;;;;;17.97;100.00;100870.94;5044869;28;20210;-73
2021/07/09 03:19:48;;;;;;;14.00;12.00;;;;;;;17.93;100.00;100864.97;5041165;28;20657;-73
2021/07/09 03:22:15;;;;;;;13.40;10.90;;;;;;;17.93;100.00;100858.84;5042864;28;20219;-73
2021/07/09 03:24:42;;;;;;;16.33;12.00;;;;;;;17.90;100.00;100851.09;5036369;28;20220;-73
2021/07/09 03:27:10;;;;;;;15.73;11.23;;;;;;;17.88;100.00;100851.16;5040912;28;20204;-73
2021/07/09 03:29:36;;;;;;;17.47;13.70;;;;;;;17.85;100.00;100847.81;5042718;28;20211;-73
2021/07/09 03:32:03;;;;;;;15.07;12.27;;;;;;;17.83;100.00;100837.34;5042853;28;20206;-73
2021/07/09 03:34:30;;;;;;;15.20;13.20;;;;;;;17.81;100.00;100827.81;5043194;28;20222;-73
2021/07/09 03:36:56;;;;;;;17.07;13.20;;;;;;;17.79;100.00;100818.19;5042086;28;20218;-73
2021/07/09 03:39:23;;;;;;;16.80;12.33;;;;;;;17.77;100.00;100819.22;5042566;28;20203;-73
2021/07/09 03:41:51;;;;;;;17.40;13.57;;;;;;;17.75;100.00;100808.75;5039413;28;20225;-72
2021/07/09 03:44:17;;;;;;;17.53;13.30;;;;;;;17.72;100.00;100806.28;5039240;28;20222;-73
2021/07/09 03:46:43;;;;;;;17.70;13.13;;;;;;;17.71;100.00;100806.34;5042434;28;20302;-72
2021/07/09 03:49:10;;;;;;;16.57;12.50;;;;;;;17.70;100.00;100812.56;5043831;28;20199;-72
2021/07/09 03:51:37;;;;;;;17.93;12.70;;;;;;;17.70;100.00;100807.31;5039586;28;20215;-74
2021/07/09 03:54:04;;;;;;;17.80;13.97;;;;;;;17.71;100.00;100806.34;5042458;28;20284;-72
2021/07/09 03:56:31;;;;;;;19.37;13.03;;;;;;;17.70;100.00;100791.47;5038914;28;20669;-72
2021/07/09 03:59:00;;;;;;;18.70;13.73;;;;;;;17.70;100.00;100786.22;5040672;28;20222;-73
2021/07/09 04:01:26;;;;;;;18.30;13.57;;;;;;;17.65;100.00;100746.06;5044855;28;20227;-72
2021/07/09 04:03:53;;;;;;;17.13;13.43;;;;;;;17.59;100.00;100713.81;5042136;28;20235;-73
2021/07/09 04:06:20;;;;;;;20.43;14.87;;;;;;;17.55;100.00;100685.06;5042447;28;20203;-73
2021/07/09 04:08:46;;;;;;;16.63;13.30;;;;;;;17.55;100.00;100659.56;5041809;28;20217;-74
2021/07/09 04:11:12;;;;;;;18.87;13.90;;;;;;;17.56;100.00;100719.25;5040407;28;20195;-73
2021/07/09 04:13:39;;;;;;;18.60;14.13;;;;;;;17.60;100.00;100791.09;5041807;28;20528;-73
2021/07/09 04:16:06;;;;;;;18.37;13.90;;;;;;;17.62;100.00;100810.31;5041624;28;20210;-72
2021/07/09 04:18:34;;;;;;;17.67;13.10;;;;;;;17.64;100.00;100808.44;5044109;28;20200;-72
2021/07/09 04:21:01;;;;;;;17.33;13.57;;;;;;;17.66;100.00;100784.66;5046206;28;20218;-74
2021/07/09 04:23:27;;;;;;;30.83;12.83;;;;;;;17.66;100.00;100784.66;5048247;28;20234;-73
2021/07/09 04:25:53;;;;;;;18.93;14.03;;;;;;;17.66;100.00;100753.00;5048438;28;20208;-73
2021/07/09 04:28:20;;;;;;;19.73;14.70;;;;;;;17.64;100.00;100731.16;5044006;28;20210;-72
2021/07/09 04:30:46;;;;;;;18.33;14.23;;;;;;;17.63;100.00;100711.00;5044567;28;20199;-73
2021/07/09 04:33:14;;;;;;;18.03;13.93;;;;;;;17.61;100.00;100708.47;5044894;28;20669;-73
2021/07/09 04:35:41;;;;;;;16.10;13.20;;;;;;;17.60;100.00;100712.84;5045466;28;20704;-73
2021/07/09 04:38:07;;;;;;;18.23;13.67;;;;;;;17.58;100.00;100713.88;5044119;28;20203;-72
2021/07/09 04:40:34;;;;;;;19.60;14.10;;;;;;;17.57;100.00;100723.59;5042863;28;20248;-72
2021/07/09 04:43:00;;;;;;;18.33;13.43;;;;;;;17.57;100.00;100731.50;5046727;28;20392;-74
2021/07/09 04:45:26;;;;;;;17.83;13.23;;;;;;;17.57;100.00;100738.53;5045563;28;20227;-73
2021/07/09 04:47:53;;;;;;;17.63;13.80;;;;;;;17.58;100.00;100730.53;5046871;28;20227;-72
2021/07/09 04:50:20;;;;;;;20.10;13.70;;;;;;;17.60;100.00;100720.75;5046351;28;20518;-73
2021/07/09 04:52:47;;;;;;;19.00;14.00;;;;;;;17.58;100.00;100706.81;5042684;28;20207;-73
2021/07/09 04:55:15;;;;;;;17.53;13.53;;;;;;;17.60;100.00;100704.94;5042853;28;20695;-72
2021/07/09 04:57:41;;;;;;;17.70;13.53;;;;;;;17.62;100.00;100704.03;5047136;28;20261;-74
2021/07/09 05:00:09;;;;;;;19.53;13.43;;;;;;;17.60;100.00;100701.47;5045923;28;20659;-73
2021/07/09 05:02:36;;;;;;;17.90;13.60;;;;;;;17.59;100.00;100692.72;5047369;28;20747;-73
2021/07/09 05:05:04;;;;;;;18.67;13.70;;;;;;;17.59;100.00;100682.19;5044440;28;20261;-73
2021/07/09 05:07:31;;;;;;;19.33;14.30;;;;;;;17.61;100.00;100671.56;5044396;28;20207;-73
2021/07/09 05:09:58;;;;;;;22.60;15.07;;;;;;;17.62;100.00;100665.31;5045098;28;20200;-74
2021/07/09 05:12:24;;;;;;;21.43;15.17;;;;;;;17.63;100.00;100680.22;5044741;28;20208;-73
2021/07/09 05:14:50;;;;;;;21.43;14.30;;;;;;;17.66;100.00;100692.38;5045636;28;20227;-73
2021/07/09 05:17:17;;;;;;;18.00;14.57;;;;;;;17.67;100.00;100699.34;5043195;28;20537;-72
2021/07/09 05:19:43;;;;;;;20.73;14.43;;;;;;;17.72;100.00;100705.22;5045333;28;20199;-72
2021/07/09 05:22:10;;;;;;;22.30;14.70;;;;;;;17.75;100.00;100727.00;5046075;28;20223;-72
2021/07/09 05:24:39;;;;;;;19.40;15.17;;;;;;;17.77;100.00;100742.75;5046541;28;20261;-72
2021/07/09 05:27:05;;;;;;;19.03;13.80;;;;;;;17.80;100.00;100745.22;5044083;28;20310;-73
2021/07/09 05:29:32;;;;;;;19.07;14.53;;;;;;;17.84;100.00;100748.56;5044189;28;20202;-72
2021/07/09 05:31:58;;;;;;;19.77;14.87;;;;;;;17.88;100.00;100755.38;5044079;28;20216;-73
2021/07/09 05:34:25;;;;;;;19.23;14.17;;;;;;;17.92;100.00;100739.31;5046844;28;20218;-72
2021/07/09 05:36:51;;;;;;;17.50;13.53;;;;;;;17.95;100.00;100733.00;5041481;28;20208;-74
2021/07/09 05:39:18;;;;;;;18.37;13.70;;;;;;;18.01;100.00;100732.69;5041649;28;20450;-73
2021/07/09 05:41:46;;;;;;;16.70;13.67;;;;;;;18.06;100.00;100735.88;5043497;28;20245;-73
2021/07/09 05:44:12;;;;;;;18.20;13.80;;;;;;;18.09;100.00;100724.31;5044586;28;20258;-72
2021/07/09 05:46:39;;;;;;;18.17;14.07;;;;;;;18.14;100.00;100723.13;5043715;28;20209;-73
2021/07/09 05:49:05;;;;;;;17.40;13.07;;;;;;;18.16;100.00;100723.88;5040027;28;20210;-72
2021/07/09 05:51:32;;;;;;;18.13;13.40;;;;;;;18.16;100.00;100726.53;5042988;28;20200;-73
2021/07/09 05:53:58;;;;;;;16.50;13.50;;;;;;;18.23;100.00;100732.31;5040481;28;20223;-74
2021/07/09 05:56:24;;;;;;;14.53;12.67;;;;;;;18.24;100.00;100731.38;5043786;28;20201;-72
2021/07/09 05:58:52;;;;;;;17.37;13.40;;;;;;;18.28;100.00;100737.34;5042144;28;20547;-74
2021/07/09 06:01:19;;;;;;;16.40;12.70;;;;;;;18.38;100.00;100737.66;5039335;28;20212;-73
2021/07/09 06:03:45;;;;;;;17.20;13.60;;;;;;;18.46;100.00;100730.16;5045798;28;20237;-74
2021/07/09 06:06:11;;;;;;;16.40;13.00;;;;;;;18.49;100.00;100743.19;5044320;28;20203;-73
2021/07/09 06:08:38;;;;;;;15.50;13.40;;;;;;;18.53;100.00;100742.91;5045681;28;20575;-72
2021/07/09 06:11:04;;;;;;;17.90;13.03;;;;;;;18.53;100.00;100745.53;5043211;28;20207;-73
2021/07/09 06:13:31;;;;;;;16.00;12.63;;;;;;;18.54;100.00;100751.69;5043847;28;20728;-72
2021/07/09 06:15:58;;;;;;;15.37;12.57;;;;;;;18.58;100.00;100755.00;5044234;28;20214;-73
2021/07/09 06:18:25;;;;;;;14.87;12.07;;;;;;;18.53;100.00;100755.25;5045294;28;20196;-72
2021/07/09 06:20:51;;;;;;;16.17;12.90;;;;;;;18.58;100.00;100741.81;5036590;28;20211;-72
2021/07/09 06:23:18;;;;;;;15.27;12.23;;;;;;;18.62;100.00;100748.59;5042348;28;21064;-73
2021/07/09 06:25:44;;;;;;;16.87;12.37;;;;;;;18.73;100.00;100748.81;5045142;28;20195;-72
2021/07/09 06:28:11;;;;;;;13.10;11.60;;;;;;;18.76;100.00;100739.88;5043520;28;20506;-73
2021/07/09 06:30:38;;;;;;;13.30;11.13;;;;;;;18.93;100.00;100745.06;5043173;28;20647;-74
2021/07/09 06:33:07;;;;;;;13.83;10.97;;;;;;;19.08;100.00;100732.72;5043928;28;20236;-72
2021/07/09 06:35:34;;;;;;;13.93;10.53;;;;;;;19.11;100.00;100728.09;5042520;28;20262;-73
2021/07/09 06:38:00;;;;;;;10.87;9.17;;;;;;;19.13;100.00;100719.22;5041992;28;20210;-73
2021/07/09 06:40:27;;;;;;;11.30;9.57;;;;;;;19.27;100.00;100721.88;5042867;28;21114;-72
2021/07/09 06:42:54;;;;;;;11.43;9.77;;;;;;;19.45;100.00;100726.06;5042129;28;20247;-73
2021/07/09 06:45:21;;;;;;;11.83;10.07;;;;;;;19.62;100.00;100718.84;5041180;28;20226;-73
2021/07/09 06:47:47;;;;;;;11.93;9.47;;;;;;;19.65;100.00;100716.03;5042458;28;20281;-73
2021/07/09 06:50:15;;;;;;;10.37;8.67;;;;;;;19.74;100.00;100704.06;5040495;28;20268;-73
2021/07/09 06:52:42;;;;;;;9.13;8.00;;;;;;;19.81;100.00;100703.56;5042530;28;20582;-73
2021/07/09 06:55:10;;;;;;;9.77;8.30;;;;;;;19.88;100.00;100696.09;5040211;28;20738;-72
2021/07/09 06:57:36;;;;;;;10.40;8.03;;;;;;;19.97;100.00;100694.63;5041912;28;20215;-73
2021/07/09 07:00:05;;;;;;;9.73;8.47;;;;;;;20.04;100.00;100696.78;5043705;28;20203;-72
2021/07/09 07:02:32;;;;;;;9.97;8.37;;;;;;;20.02;100.00;100689.91;5041593;28;20631;-73
2021/07/09 07:04:58;;;;;;;9.03;8.10;;;;;;;20.16;100.00;100689.84;5045079;28;20227;-73
2021/07/09 07:07:26;;;;;;;9.83;8.43;;;;;;;20.29;100.00;100687.22;5042893;28;20210;-73
2021/07/09 07:09:52;;;;;;;9.70;8.37;;;;;;;20.34;100.00;100682.50;5043143;28;20503;-73
2021/07/09 07:12:18;;;;;;;7.87;7.07;;;;;;;20.39;100.00;100685.69;5042084;28;20206;-72
2021/07/09 07:14:45;;;;;;;8.80;7.53;;;;;;;20.40;100.00;100678.56;5045617;28;20219;-72
2021/07/09 07:17:11;;;;;;;8.43;7.43;;;;;;;20.51;100.00;100677.84;5045788;28;20210;-73
2021/07/09 07:19:37;;;;;;;9.47;8.07;;;;;;;20.45;100.00;100675.63;5044071;28;20659;-73
2021/07/09 07:22:04;;;;;;;10.40;7.90;;;;;;;20.50;100.00;100671.72;5040999;28;20211;-73
2021/07/09 07:24:32;;;;;;;8.00;6.87;;;;;;;20.53;100.00;100673.34;5042999;28;20219;-72
2021/07/09 07:26:59;;;;;;;9.73;7.20;;;;;;;20.56;100.00;100679.28;5044443;28;20297;-73
2021/07/09 07:29:26;;;;;;;8.00;7.20;;;;;;;20.67;100.00;100669.75;5042976;28;20218;-73
2021/07/09 07:31:52;;;;;;;8.30;7.40;;;;;;;20.73;100.00;100670.19;5043673;28;20210;-74
2021/07/09 07:34:19;;;;;;;9.07;8.00;;;;;;;20.69;100.00;100676.66;5043355;28;20229;-73
2021/07/09 07:36:45;;;;;;;8.20;7.40;;;;;;;20.79;100.00;100671.56;5046867;28;20210;-73
2021/07/09 07:39:12;;;;;;;9.00;8.03;;;;;;;20.88;100.00;100675.38;5042673;28;20207;-72
2021/07/09 07:41:40;;;;;;;8.20;6.82;;;;;;;20.96;98.91;100675.72;5044087;28;20203;-73
2021/07/09 07:44:07;;;;;;;7.50;6.80;;;;;;;20.99;98.03;100678.16;5038168;28;20880;-73
2021/07/09 07:46:34;;;;;;;7.03;6.32;;;;;;;20.98;96.85;100682.63;5045450;28;20198;-73
2021/07/09 07:49:01;;;;;;;7.13;6.18;;;;;;;21.09;95.97;100679.22;5043999;28;20211;-72
2021/07/09 07:51:27;;;;;;;6.72;6.07;;;;;;;21.24;96.79;100677.31;5044187;28;20215;-73
2021/07/09 07:53:54;;;;;;;7.45;6.30;;;;;;;21.31;96.29;100683.03;5044433;28;20222;-72
2021/07/09 07:56:21;;;;;;;6.18;5.57;;;;;;;21.25;95.02;100679.00;5045568;28;20559;-73
2021/07/09 07:58:51;;;;;;;6.25;5.65;;;;;;;21.38;94.22;100681.63;5047525;28;20294;-72
2021/07/09 08:01:18;;;;;;;5.68;5.07;;;;;;;21.34;91.63;100685.47;5046472;28;20207;-74
2021/07/09 08:03:45;;;;;;;6.13;5.53;;;;;;;21.27;92.09;100687.69;5048006;28;20662;-72
2021/07/09 08:06:11;;;;;;;6.00;5.40;;;;;;;21.34;94.08;100681.00;5047823;28;20762;-72
2021/07/09 08:08:38;;;;;;;6.95;6.25;;;;;;;21.30;92.75;100683.97;5043885;28;20207;-72
2021/07/09 08:11:05;;;;;;;6.07;5.47;;;;;;;21.32;94.55;100684.75;5044793;28;20214;-72
2021/07/09 08:13:31;;;;;;;6.82;6.10;;;;;;;21.28;93.48;100685.88;5044074;28;20555;-72
2021/07/09 08:15:59;;;;;;;6.47;5.88;;;;;;;21.26;93.59;100690.44;5044116;28;20588;-74
2021/07/09 08:18:25;;;;;;;6.72;5.70;;;;;;;21.21;93.84;100695.22;5050926;28;20214;-73
2021/07/09 08:20:52;;;;;;;6.75;6.07;;;;;;;21.18;93.85;100697.13;5044920;28;20206;-72
2021/07/09 08:23:18;;;;;;;6.15;5.55;;;;;;;21.25;95.87;100692.28;5052078;28;20238;-73
2021/07/09 08:25:44;;;;;;;6.45;5.85;;;;;;;21.30;94.49;100706.06;5045097;28;20603;-73
2021/07/09 08:28:13;;;;;;;6.45;5.80;;;;;;;21.36;95.73;100700.31;5045770;28;20532;-72
2021/07/09 08:30:41;;;;;;;8.07;5.82;;;;;;;21.23;92.61;100703.91;5046042;28;20210;-72
2021/07/09 08:33:09;;;;;;;6.50;5.57;;;;;;;21.29;92.89;100703.50;5046414;28;20266;-72
2021/07/09 08:35:35;;;;;;;6.55;5.90;;;;;;;21.50;94.04;100702.00;5044657;28;20218;-73
2021/07/09 08:38:01;;;;;;;6.88;6.18;;;;;;;21.61;90.98;100706.56;5044091;28;20204;-72
2021/07/09 08:40:28;;;;;;;6.13;5.53;;;;;;;21.55;91.04;100705.19;5045791;28;20559;-72
2021/07/09 08:42:54;;;;;;;6.32;5.43;;;;;;;21.69;91.30;100706.88;5044128;28;20519;-73
2021/07/09 08:45:21;;;;;;;5.97;5.38;;;;;;;21.88;92.72;100702.88;5047373;28;20441;-73
2021/07/09 08:47:48;;;;;;;5.20;4.70;;;;;;;21.99;91.25;100702.97;5043968;28;20221;-72
2021/07/09 08:50:17;;;;;;;5.45;4.95;;;;;;;22.03;88.43;100709.72;5046953;28;20202;-73
2021/07/09 08:52:43;;;;;;;5.10;4.60;;;;;;;22.16;87.19;100716.78;5044528;28;20577;-72
2021/07/09 08:55:12;;;;;;;5.15;4.65;;;;;;;22.17;85.48;100716.69;5045733;28;20223;-72
2021/07/09 08:57:40;;;;;;;5.97;4.68;;;;;;;22.31;89.13;100715.69;5045928;28;20207;-71
2021/07/09 09:00:27;;;;;;;4.78;4.38;;;;;;;22.24;88.02;100707.31;5046567;28;20254;-73
2021/07/09 09:02:55;;;;;;;6.10;4.75;;;;;;;22.11;86.50;100707.38;5044331;28;20229;-72
2021/07/09 09:05:23;;;;;;;5.13;4.63;;;;;;;22.03;87.86;100709.72;5040882;28;20230;-72
2021/07/09 09:07:57;;;;;;;4.95;4.43;;;;;;;22.25;88.73;100718.75;5039991;28;20527;-72
2021/07/09 09:10:33;;;;;;;4.30;3.92;;;;;;;22.31;87.63;100723.66;5043978;28;20302;-72
2021/07/09 09:13:04;;;;;;;5.28;4.60;;;;;;;22.30;86.46;100727.28;5045927;28;20260;-71
2021/07/09 09:15:31;;;;;;;4.50;4.10;;;;;;;22.26;88.06;100718.66;5046847;28;20233;-73
2021/07/09 09:17:59;;;;;;;4.95;4.45;;;;;;;22.43;87.61;100717.44;5045718;28;20226;-71
2021/07/09 09:20:29;;;;;;;5.43;4.35;;;;;;;22.50;83.56;100725.81;5040847;28;20203;-71
2021/07/09 09:22:58;;;;;;;5.32;4.57;;;;;;;22.56;84.80;100725.34;5043963;28;20903;-72
2021/07/09 09:25:26;;;;;;;4.63;4.22;;;;;;;22.89;86.94;100710.47;5042426;28;20226;-72
2021/07/09 09:28:02;;;;;;;4.85;4.35;;;;;;;23.06;85.90;100706.53;5044181;28;20203;-71
2021/07/09 09:30:29;;;;;;;4.45;4.05;;;;;;;23.19;85.52;100706.44;5046405;28;20294;-73
2021/07/09 09:32:56;;;;;;;5.03;4.35;;;;;;;23.18;82.70;100715.34;5045697;28;20202;-73
2021/07/09 09:35:25;;;;;;;4.50;4.10;;;;;;;23.27;83.55;100701.38;5044294;28;20869;-72
2021/07/09 09:37:54;;;;;;;4.15;3.80;;;;;;;23.51;77.94;100708.38;5042296;28;20204;-73
2021/07/09 09:40:22;;;;;;;3.72;3.40;;;;;;;23.70;77.21;100707.75;5046683;28;20568;-71
2021/07/09 09:42:48;;;;;;;4.50;4.10;;;;;;;23.70;78.51;100705.91;5043204;28;20230;-71
2021/07/09 09:45:19;;;;;;;5.00;3.95;;;;;;;23.69;79.92;100693.56;5060368;28;20223;-72
2021/07/09 09:47:46;;;;;;;5.07;3.97;;;;;;;23.96;79.14;100685.22;5044174;28;20590;-73
2021/07/09 09:50:16;;;;;;;4.00;3.70;;;;;;;24.23;80.61;100683.91;5042456;28;20245;-73
2021/07/09 09:52:46;;;;;;;4.03;3.63;;;;;;;24.30;79.09;100685.09;5042496;28;20664;-72
2021/07/09 09:55:14;;;;;;;4.15;3.78;;;;;;;24.43;77.04;100686.72;5042845;28;20216;-72
2021/07/09 09:57:41;;;;;;;4.50;4.10;;;;;;;24.42;79.12;100680.56;5044992;28;20754;-71
2021/07/09 10:00:10;;;;;;;4.30;3.90;;;;;;;24.39;72.51;100688.81;5044499;28;20207;-72
2021/07/09 10:02:39;;;;;;;4.20;3.80;;;;;;;24.52;75.69;100684.16;5044445;28;20937;-71
2021/07/09 10:05:06;;;;;;;4.88;4.45;;;;;;;24.55;75.47;100683.06;5042627;28;20262;-72
2021/07/09 10:07:35;;;;;;;5.78;4.63;;;;;;;24.47;75.35;100680.19;5046816;28;20209;-72
2021/07/09 10:10:04;;;;;;;5.35;4.57;;;;;;;24.61;75.72;100671.03;5039811;28;20203;-72
2021/07/09 10:12:31;;;;;;;5.50;4.80;;;;;;;24.60;76.02;100672.88;5045530;28;20235;-72
2021/07/09 10:14:58;;;;;;;5.65;4.93;;;;;;;24.60;72.72;100680.84;5041701;28;20238;-71
2021/07/09 10:17:26;;;;;;;4.85;4.45;;;;;;;24.66;73.39;100668.81;5043958;28;20211;-72
2021/07/09 10:19:55;;;;;;;5.35;4.30;;;;;;;24.50;71.83;100682.56;5042361;28;20214;-72
2021/07/09 10:22:22;;;;;;;5.20;4.25;;;;;;;24.37;75.33;100677.44;5042859;28;20669;-72
2021/07/09 10:24:51;;;;;;;4.75;4.35;;;;;;;24.30;71.71;100682.41;5039411;28;20223;-73
2021/07/09 10:27:21;;;;;;;4.68;4.28;;;;;;;24.34;74.09;100683.88;5045804;28;20302;-71
2021/07/09 10:29:49;;;;;;;4.20;3.80;;;;;;;24.46;72.62;100681.16;5042825;28;20203;-72
2021/07/09 10:32:30;;;;;;;3.47;3.17;;;;;;;24.42;73.16;100679.72;5047682;28;20294;-72
2021/07/09 10:34:57;;;;;;;4.07;3.75;;;;;;;24.53;74.41;100663.66;5041052;28;20693;-72
2021/07/09 10:37:28;;;;;;;4.05;3.25;;;;;;;24.62;71.31;100665.56;5041984;28;20200;-72
2021/07/09 10:40:06;;;;;;;3.55;3.25;;;;;;;24.71;73.71;100661.28;5044702;28;20207;-74
2021/07/09 10:42:39;;;;;;;4.15;3.75;;;;;;;24.75;71.71;100673.41;5042390;28;20198;-71
2021/07/09 10:45:12;;;;;;;3.88;3.47;;;;;;;24.72;68.84;100674.47;5043470;28;20668;-74
2021/07/09 10:47:40;;;;;;;3.78;3.47;;;;;;;24.70;70.84;100667.59;5042219;28;20585;-72
2021/07/09 10:50:08;;;;;;;4.22;3.72;;;;;;;24.57;69.23;100670.44;5042736;28;20208;-71
2021/07/09 10:52:45;;;;;;;3.38;3.08;;;;;;;24.46;68.38;100662.50;5042052;28;20305;-72
2021/07/09 10:55:41;;;;;;;3.97;3.15;;;;;;;24.37;68.02;100666.78;5041166;28;20714;-71
2021/07/09 10:58:40;;;;;;;3.60;3.30;;;;;;;24.36;71.36;100654.41;5042194;28;20204;-71
2021/07/09 11:01:18;;;;;;;3.85;3.55;;;;;;;24.40;71.39;100658.53;5034014;28;20274;-72
2021/07/09 11:03:46;;;;;;;3.65;3.35;;;;;;;24.48;73.02;100645.38;5041270;28;20318;-72
2021/07/09 11:06:13;;;;;;;3.80;3.50;;;;;;;24.53;71.00;100647.69;5041566;28;20194;-71
2021/07/09 11:08:41;;;;;;;3.92;3.63;;;;;;;24.55;70.92;100649.28;5042242;28;20207;-73
2021/07/09 11:11:10;;;;;;;4.00;3.70;;;;;;;24.38;69.85;100645.34;5042884;28;20634;-72
2021/07/09 11:13:54;;;;;;;3.97;3.67;;;;;;;24.83;71.86;100638.06;5039749;28;20434;-72
2021/07/09 11:16:24;;;;;;;4.28;3.88;;;;;;;25.19;69.50;100638.50;5041267;28;20199;-72